Tiempo atmosférico en la estación meteorológica de Fuente De Cantos, Badajoz (602 m.)



Fecha
DESCASC
Temp. máxima en grados centígrados (hora)
DESCASC
Temp. mínima en grados centígrados (hora)
DESCASC
Temp. media en grados centígrados
DESCASC
Racha de viento máxima en m/sg (hora)
DESCASC
Velocidad máxima media en intervalos de 10 minutos(hora)
DESCASC
Precipitaciones diarias en mm
DESCASC
Precipitaciones de 00:00 a 06:00 en mm
DESCASC
Precipitaciones de 06:00 a 12:00 en mm
DESCASC
Precipitaciones de 12:00 a 18:00 en mm
DESCASC
Precipitaciones de 18:00 a 24:00 en mm
DESCASC
20-05-2018 21.1 (17:40) 11.4 (02:10) 16.3 8.06 (18:20) 5.83 (18:20) 2.2 0 2 0.2 0
19-05-2018 23.4 (17:40) 11.8 (07:10) 17.6 10 (18:50) 7.22 (19:20) 2.8 0 0 0 2.8
18-05-2018 22.3 (14:20) 11.8 (00:00) 17 9.44 (16:00) 7.5 (16:00) 14.4 0 0.8 10 3.6
17-05-2018 26.8 (17:40) 10.7 (00:00) 18.7 7.5 (21:10) 5 (04:40) 0 0 0 0 0
16-05-2018 26.5 (17:20) 12.1 (00:00) 19.3 10.83 (15:30) 6.39 (16:30) 0 0 0 0 0
15-05-2018 24.7 (16:40) 8.2 (00:00) 16.5 10 (14:30) 5.83 (10:10) 0 0 0 0 0
14-05-2018 22.8 (17:40) 5.9 (00:00) 14.3 12.22 (15:50) 8.61 (18:00) 0 0 0 0 0
13-05-2018 18.7 (17:00) 2.9 (00:00) 10.8 11.67 (19:10) 7.78 (19:00) 0 0 0 0 0
12-05-2018 17.6 (16:50) 8.1 (00:00) 12.9 12.78 (19:20) 10 (19:20) 0 0 0 0 0
11-05-2018 23.4 (17:20) 10.7 (07:20) 17 7.5 (13:10) 5.28 (20:10) 0 0 0 0 0
10-05-2018 22.3 (16:30) 7.7 (00:00) 15 7.5 (03:20) 5.28 (03:10) 0 0 0 0 0
09-05-2018 20.5 (15:50) 10 (00:00) 15.3 10 (18:20) 7.5 (18:20) 0 0 0 0 0
08-05-2018 23.4 (15:10) 13 (00:00) 18.2 16.11 (21:20) 11.94 (21:20) 1 0 0 1 0
07-05-2018 23.7 (14:10) 11.8 (00:00) 17.8 15.83 (16:50) 8.89 (16:50) 5 0 0 5 0
06-05-2018 23.7 (17:20) 13.1 (00:00) 18.4 9.72 (17:40) 6.11 (11:10) 1.2 0 0 0.6 0.6
05-05-2018 23.4 (15:50) 10.4 (00:00) 16.9 5.56 (00:30) 4.44 (00:20) 0 0 0 0 0
04-05-2018 19.8 (18:00) 6.6 (00:00) 13.2 8.89 (10:20) 6.67 (10:20) 0 0 0 0 0
03-05-2018 20.1 (17:30) 6.3 (00:00) 13.2 10.83 (20:10) 7.78 (20:10) 0 0 0 0 0
02-05-2018 16.3 (16:40) 3.6 (00:00) 9.9 8.61 (15:20) 5 (15:20) 0 0 0 0 0
01-05-2018 14.3 (15:20) 5.9 (02:30) 10.1 13.89 (16:50) 10 (16:50) 0.2 0 0 0.2 0
30-04-2018 14 (18:30) 3.3 (00:00) 8.6 9.44 (19:00) 7.5 (17:10) 0.4 0 0.2 0.2 0
29-04-2018 12.3 (18:50) 5.1 (00:00) 8.7 14.72 (14:20) 10 (19:40) 2 0 0.4 1.6 0
28-04-2018 13.6 (18:40) 4.5 (00:00) 9.1 12.22 (22:10) 8.61 (22:20) 3.2 0 0 0 3.2
27-04-2018 20.3 (16:00) 10.9 (00:00) 15.6 11.67 (16:00) 6.39 (19:20) 0 0 0 0 0
26-04-2018 26.5 (18:40) 12.4 (00:00) 19.4 8.61 (00:10) 6.67 (00:20) 0 0 0 0 0
25-04-2018 24.7 (17:20) 11.8 (00:00) 18.3 11.67 (23:40) 5.83 (23:50) 0 0 0 0 0
24-04-2018 21.7 (17:50) 14.2 (00:00) 18 10.28 (10:20) 6.94 (10:20) 0 0 0 0 0
23-04-2018 23.2 (16:40) 12.6 (00:00) 17.9 15.83 (00:10) 10 (03:00) 11.4 7.2 4.2 0 0
22-04-2018 22 (17:20) 10.7 (00:00) 16.3 10.28 (03:10) 7.5 (11:10) 4 2.8 0 0 1.2

Gráficas

Temp. máximas Temp. mínimas Temp. medias Precipitaciones Rachas de viento máximas Velocidades máximas media en intervalos de 10 minutos

Datos horarios

Fecha y hora oficial Temperatura (ºC) Velocidad del viento (km/h) Dirección del viento Racha (km/h) Dirección de racha Precipitación (mm) Presión (hPa) Tendencia (hPa) Humedad (%)
2018-05-21 23:00:00 -- -- -- -- -- -- -- -- --
2018-05-21 22:00:00 16 6 Noroeste 15 Oeste 0 -- -- 68
2018-05-21 21:00:00 18.8 13 Oeste 23 Oeste 0 -- -- 58
2018-05-21 20:00:00 20.7 13 Oeste 24 Sudoeste 0 -- -- 49
2018-05-21 19:00:00 21.7 15 Oeste 31 Oeste 0 -- -- 52
2018-05-21 18:00:00 21.2 13 Oeste 29 Sur 0 -- -- 51
2018-05-21 17:00:00 21.3 16 Sudoeste 26 Sudoeste 0 -- -- 54
2018-05-21 16:00:00 20.7 16 Sudoeste 28 Sudoeste 0 -- -- 59
2018-05-21 15:00:00 19 21 Sudoeste 33 Sur 0 -- -- 62
2018-05-21 14:00:00 19.9 14 Sur 23 Sur 0 -- -- 64
2018-05-21 13:00:00 16.5 14 Oeste 30 Oeste 0 -- -- 69
2018-05-21 12:00:00 17.7 5 Sur 15 Sudoeste 0 -- -- 69
2018-05-21 11:00:00 18.4 5 Este 14 Sudeste 0 -- -- 70
2018-05-21 10:00:00 16.7 7 Este 10 Este 0 -- -- 78
2018-05-21 09:00:00 14.3 4 Sudeste 7 Sudeste 0 -- -- 86
2018-05-21 08:00:00 12.1 3 Noroeste 5 Norte 0 -- -- 92
2018-05-21 07:00:00 12.5 3 Oeste 5 Oeste 0 -- -- 89
2018-05-21 06:00:00 12.6 5 Sudeste 8 Sudeste 0 -- -- 90
2018-05-21 05:00:00 12.3 6 Este 19 Sudeste 0 -- -- 91
2018-05-21 04:00:00 13.1 10 Sudeste 13 Sudeste 0 -- -- 89
2018-05-21 03:00:00 12.8 4 Sur 12 Sur 0 -- -- 91
2018-05-21 02:00:00 12.3 8 Sur 9 Sudeste 0 -- -- 91
2018-05-21 01:00:00 12.7 2 Sudeste 9 Este 0 -- -- 88
2018-05-21 00:00:00 12.8 8 Este 14 Sur 0 -- -- 88
2018-05-20 23:00:00 13.3 8 Sur 20 Sur 0 -- -- 82
2018-05-20 22:00:00 13.8 9 Sudeste 28 Sudeste 0 -- -- 85
2018-05-20 21:00:00 16.3 21 Sudeste 28 Sudeste 0 -- -- 71
2018-05-20 20:00:00 19.4 10 Noroeste 23 Oeste 0 -- -- 61
2018-05-20 19:00:00 20.8 17 Noroeste 29 Noroeste 0 -- -- 54
2018-05-20 18:00:00 21.1 18 Noroeste 27 Oeste 0 -- -- 51
2018-05-20 17:00:00 20.8 17 Oeste 29 Oeste 0 -- -- 62
2018-05-20 16:00:00 19.2 8 Sudoeste 17 Sur 0 -- -- 64
2018-05-20 15:00:00 16.2 13 Sur 18 Sur 0 -- -- 79
2018-05-20 14:00:00 15.5 5 Sudeste 13 Sudeste 0 -- -- 80
2018-05-20 13:00:00 15.7 7 Sur 22 Sudeste 0.2 -- -- 84
2018-05-20 12:00:00 13.8 13 Este 23 Este 2 -- -- 88
2018-05-20 11:00:00 15.4 19 Norte 26 Norte 0 -- -- 86
2018-05-20 10:00:00 16 5 Nordeste 8 Nordeste 0 -- -- 82
2018-05-20 09:00:00 14.1 4 Sur 6 Sudeste 0 -- -- 87
2018-05-20 08:00:00 12.8 4 Sudeste 6 Sudeste 0 -- -- 86
2018-05-20 07:00:00 12.5 2 Sur 7 Sudeste 0 -- -- 84
2018-05-20 06:00:00 12.2 4 Sudoeste 9 Sudoeste 0 -- -- 84
2018-05-20 05:00:00 12.2 6 Sudoeste 9 Sudoeste 0 -- -- 85
2018-05-20 04:00:00 12 5 Sudoeste 9 Sudoeste 0 -- -- 86
2018-05-20 03:00:00 11.4 6 Sur 8 Sur 0 -- -- 93
2018-05-20 02:00:00 11.5 6 Oeste 9 Oeste 0 -- -- 93
2018-05-20 01:00:00 11.9 4 Sudoeste 8 Oeste 0 -- -- 92
2018-05-20 00:00:00 12.4 5 Oeste 7 Oeste 0 -- -- 90
2018-05-19 23:00:00 12.6 2 Noroeste 14 Sudoeste 0 -- -- 91
2018-05-19 22:00:00 13.3 11 Sudoeste 15 Sudoeste 0 -- -- 91
2018-05-19 21:00:00 13.8 12 Oeste 27 Sudeste 0.8 -- -- 87
2018-05-19 20:00:00 14.2 15 Este 36 Nordeste 1.8 -- -- 89
2018-05-19 19:00:00 17.3 21 Sudeste 36 Sudeste 0.2 -- -- 67
2018-05-19 18:00:00 22.3 12 Noroeste 23 Norte 0 -- -- 49
2018-05-19 17:00:00 22.2 8 Noroeste 20 Nordeste 0 -- -- 54
2018-05-19 16:00:00 19.9 12 Sudeste 27 Este 0 -- -- 61
2018-05-19 15:00:00 22.7 6 Este 18 Norte 0 -- -- 51
2018-05-19 14:00:00 20.9 5 Norte 19 Nordeste 0 -- -- 58
2018-05-19 13:00:00 20.4 6 Nordeste 24 Este 0 -- -- 57
2018-05-19 12:00:00 20.3 8 Este 17 Sudeste 0 -- -- 58
2018-05-19 11:00:00 17.9 9 Sudeste 15 Sudeste 0 -- -- 66
2018-05-19 10:00:00 17 10 Este 18 Este 0 -- -- 70
2018-05-19 09:00:00 13.2 9 Este 14 Este 0 -- -- 93
2018-05-19 08:00:00 12.3 13 Este 16 Este 0 -- -- 88
2018-05-19 07:00:00 11.9 15 Este 18 Este 0 -- -- 90
2018-05-19 06:00:00 12 16 Este 18 Este 0 -- -- 92
2018-05-19 05:00:00 12.1 2 Sur 7 Sudeste 0 -- -- 96
2018-05-19 04:00:00 12.2 3 Sur 8 Oeste 0 -- -- 95
2018-05-19 03:00:00 12.1 2 Oeste 13 Este 0 -- -- 95
2018-05-19 02:00:00 12 10 Este 13 Este 0 -- -- 95
2018-05-19 01:00:00 12.2 8 Nordeste 10 Nordeste 0 -- -- 94
2018-05-19 00:00:00 12.5 4 Sur 6 Oeste 0 -- -- 92
2018-05-18 23:00:00 12.6 6 Noroeste 22 Sudeste 0.2 -- -- 92
2018-05-18 22:00:00 12.7 6 Norte 14 Norte 0.6 -- -- 93
2018-05-18 21:00:00 13 10 Noroeste 26 Noroeste 2 -- -- 92
2018-05-18 20:00:00 14 8 Sudoeste 24 Sudeste 0.2 -- -- 79
2018-05-18 19:00:00 15.5 20 Sudeste 31 Sudeste 0.6 -- -- 80
2018-05-18 18:00:00 15.8 18 Sudeste 28 Sudeste 6.2 -- -- 87
2018-05-18 17:00:00 14.7 18 Sudeste 32 Sudeste 3.8 -- -- 84
2018-05-18 16:00:00 19.9 27 Sur 34 Sur 0 -- -- 55
2018-05-18 15:00:00 19.8 18 Sur 25 Sur 0 -- -- 59
2018-05-18 14:00:00 21.3 7 Este 13 Este 0 -- -- 55
2018-05-18 13:00:00 21.4 5 Sudeste 21 Norte 0 -- -- 49
2018-05-18 12:00:00 20.3 4 Sudoeste 13 Oeste 0 -- -- 56
2018-05-18 11:00:00 18.2 6 Sur 12 Sur 0 -- -- 63
2018-05-18 10:00:00 15.5 4 Sur 11 Sur 0 -- -- 84
2018-05-18 09:00:00 14.3 8 Sudeste 14 Sudeste 0 -- -- 90
2018-05-18 08:00:00 11.8 7 Sudeste 11 Sudeste 0.8 -- -- 93
2018-05-18 07:00:00 12 5 Oeste 11 Noroeste 0 -- -- 91
2018-05-18 06:00:00 12.3 0 Calma 5 Sur 0 -- -- 84
2018-05-18 05:00:00 12.4 4 Sudoeste 8 Sudoeste 0 -- -- 86
2018-05-18 04:00:00 12.1 7 Sudoeste 12 Sudoeste -- -- -- 87
2018-05-18 03:00:00 12.4 13 Oeste 22 Oeste 0 -- -- 87
2018-05-18 02:00:00 13.2 17 Oeste 22 Oeste 0 -- -- 84
2018-05-18 01:00:00 13.8 17 Oeste 26 Sudoeste 0 -- -- 80
2018-05-18 00:00:00 14.8 14 Sudoeste 21 Sudoeste 0 -- -- 74
2018-05-17 23:00:00 15.9 17 Sudoeste 27 Sudoeste 0 -- -- 69
2018-05-17 22:00:00 18 11 Sudoeste 27 Sudoeste 0 -- -- 63
2018-05-17 21:00:00 23.6 6 Sudeste 14 Este 0 -- -- 43
2018-05-17 20:00:00 25.1 7 Este 15 Sudeste 0 -- -- 34
2018-05-17 19:00:00 23.8 3 Sudeste 14 Sudeste 0 -- -- 37
2018-05-17 18:00:00 25.2 12 Este 18 Este 0 -- -- 37
2018-05-17 17:00:00 24.3 10 Nordeste 17 Nordeste 0 -- -- 38
2018-05-17 16:00:00 25.2 14 Nordeste 26 Nordeste 0 -- -- 37
2018-05-17 15:00:00 25.5 10 Nordeste 22 Nordeste 0 -- -- 36
2018-05-17 14:00:00 24.5 6 Nordeste 18 Este 0 -- -- 41
2018-05-17 13:00:00 23.2 7 Nordeste 19 Norte 0 -- -- 43
2018-05-17 12:00:00 21.4 12 Norte 23 Norte 0 -- -- 50
2018-05-17 11:00:00 18.8 12 Noroeste 20 Noroeste 0 -- -- 56
2018-05-17 10:00:00 16.7 11 Oeste 14 Oeste 0 -- -- 63
2018-05-17 09:00:00 14.2 5 Sudeste 13 Sudeste 0 -- -- 73
2018-05-17 08:00:00 11.2 10 Este 22 Este 0 -- -- 82
2018-05-17 07:00:00 11.1 11 Este 20 Este 0 -- -- 81
2018-05-17 06:00:00 12.5 13 Sudeste 22 Este 0 -- -- 75
2018-05-17 05:00:00 13.1 15 Este 23 Sudeste 0 -- -- 71
2018-05-17 04:00:00 14.4 8 Nordeste 10 Nordeste 0 -- -- 58
2018-05-17 03:00:00 16.4 4 Este 12 Nordeste 0 -- -- 50
2018-05-17 02:00:00 14.9 13 Nordeste 17 Nordeste 0 -- -- 59
2018-05-17 01:00:00 14.9 16 Nordeste 18 Nordeste 0 -- -- 60
2018-05-17 00:00:00 15.4 16 Nordeste 18 Nordeste 0 -- -- 58
2018-05-16 23:00:00 16.5 13 Nordeste 15 Nordeste 0 -- -- 56
2018-05-16 22:00:00 17.9 13 Nordeste 14 Nordeste 0 -- -- 55
2018-05-16 21:00:00 22 12 Nordeste 22 Este 0 -- -- 47
2018-05-16 20:00:00 25.2 14 Este 27 Nordeste 0 -- -- 36
2018-05-16 19:00:00 25.2 8 Nordeste 28 Nordeste 0 -- -- 34
2018-05-16 18:00:00 26.4 11 Este 35 Este 0 -- -- 33
2018-05-16 17:00:00 26 18 Este 35 Este 0 -- -- 32
2018-05-16 16:00:00 26.2 18 Nordeste 39 Este 0 -- -- 33
2018-05-16 15:00:00 25.4 18 Nordeste 32 Nordeste 0 -- -- 34
2018-05-16 14:00:00 25 17 Este 34 Este 0 -- -- 36
2018-05-16 13:00:00 24.3 19 Nordeste 32 Nordeste 0 -- -- 39
2018-05-16 12:00:00 23.2 21 Nordeste 32 Este 0 -- -- 41
2018-05-16 11:00:00 22.1 14 Nordeste 23 Nordeste 0 -- -- 44
2018-05-16 10:00:00 20.2 8 Este 12 Nordeste 0 -- -- 48
2018-05-16 09:00:00 16.7 3 Nordeste 12 Este 0 -- -- 59
2018-05-16 08:00:00 13.2 12 Este 17 Este 0 -- -- 58
2018-05-16 07:00:00 13.5 6 Este 12 Este 0 -- -- 55
2018-05-16 06:00:00 13.8 2 Este 4 Nordeste 0 -- -- 53
2018-05-16 05:00:00 13.6 2 Sur 9 Nordeste 0 -- -- 54
2018-05-16 04:00:00 14.4 2 Este 8 Nordeste 0 -- -- 51
2018-05-16 03:00:00 13.3 6 Nordeste 13 Nordeste 0 -- -- 57
2018-05-16 02:00:00 13.1 12 Nordeste 14 Norte 0 -- -- 60
2018-05-16 01:00:00 13.7 13 Norte 16 Norte 0 -- -- 58
2018-05-16 00:00:00 14.4 13 Norte 19 Norte 0 -- -- 57
2018-05-15 23:00:00 14.7 14 Nordeste 16 Nordeste 0 -- -- 55
2018-05-15 22:00:00 15.7 10 Nordeste 17 Nordeste 0 -- -- 52
2018-05-15 21:00:00 19.8 13 Norte 23 Norte 0 -- -- 43
2018-05-15 20:00:00 22.6 15 Norte 28 Norte 0 -- -- 33
2018-05-15 19:00:00 23.9 12 Norte 26 Norte 0 -- -- 31
2018-05-15 18:00:00 24.4 15 Norte 33 Norte 0 -- -- 30
2018-05-15 17:00:00 24.6 14 Nordeste 28 Nordeste 0 -- -- 32
2018-05-15 16:00:00 24 12 Nordeste 30 Nordeste 0 -- -- 34
2018-05-15 15:00:00 23.1 13 Nordeste 36 Nordeste 0 -- -- 36
2018-05-15 14:00:00 22.4 18 Nordeste 30 Nordeste 0 -- -- 37
2018-05-15 13:00:00 21.3 18 Este 32 Este 0 -- -- 38
2018-05-15 12:00:00 20.1 18 Este 31 Este 0 -- -- 41
2018-05-15 11:00:00 17.9 18 Nordeste 30 Nordeste 0 -- -- 49
2018-05-15 10:00:00 15.6 20 Este 29 Este 0 -- -- 56
2018-05-15 09:00:00 12.8 14 Nordeste 21 Nordeste 0 -- -- 70
2018-05-15 08:00:00 8.6 14 Nordeste 16 Nordeste 0 -- -- 83
2018-05-15 07:00:00 8.4 7 Norte 10 Norte 0 -- -- 82
2018-05-15 06:00:00 10.4 2 Oeste 4 Sudoeste 0 -- -- 77
2018-05-15 05:00:00 11.5 3 Sudeste 11 Este 0 -- -- 71
2018-05-15 04:00:00 11.9 8 Este 10 Este 0 -- -- 70
2018-05-15 03:00:00 11 2 Sudeste 11 Nordeste 0 -- -- 76
2018-05-15 02:00:00 10.8 10 Nordeste 16 Nordeste 0 -- -- 79
2018-05-15 01:00:00 11.7 13 Nordeste 18 Norte 0 -- -- 76
2018-05-15 00:00:00 12.1 14 Norte 19 Norte 0 -- -- 75
2018-05-14 23:00:00 13.2 14 Norte 18 Norte 0 -- -- 69
2018-05-14 22:00:00 14.3 10 Norte 18 Norte 0 -- -- 66
2018-05-14 21:00:00 17.9 12 Norte 30 Norte 0 -- -- 53
2018-05-14 20:00:00 20.1 22 Norte 34 Norte 0 -- -- 47
2018-05-14 19:00:00 19.3 27 Norte 42 Norte 0 -- -- 48
2018-05-14 18:00:00 21.1 31 Norte 41 Norte 0 -- -- 45
2018-05-14 17:00:00 22.4 26 Noroeste 40 Norte 0 -- -- 45
2018-05-14 16:00:00 21.8 27 Norte 44 Noroeste 0 -- -- 43
2018-05-14 15:00:00 20.3 23 Noroeste 37 Noroeste 0 -- -- 49
2018-05-14 14:00:00 19.2 17 Noroeste 34 Noroeste 0 -- -- 51
2018-05-14 13:00:00 18.4 15 Norte 30 Norte 0 -- -- 53
2018-05-14 12:00:00 17 14 Norte 27 Norte 0 -- -- 54
2018-05-14 11:00:00 15.1 14 Norte 25 Noroeste 0 -- -- 57
2018-05-14 10:00:00 11.7 18 Norte 24 Norte 0 -- -- 70
2018-05-14 09:00:00 9.6 14 Noroeste 20 Norte 0 -- -- 79
2018-05-14 08:00:00 7.2 14 Noroeste 26 Norte 0 -- -- 87
2018-05-14 07:00:00 6.4 15 Noroeste 19 Noroeste 0 -- -- 88
2018-05-14 06:00:00 6.4 14 Norte 20 Noroeste 0 -- -- 88
2018-05-14 05:00:00 6.5 11 Noroeste 23 Noroeste 0 -- -- 86
2018-05-14 04:00:00 7.5 17 Noroeste 19 Norte 0 -- -- 80
2018-05-14 03:00:00 8.7 21 Norte 26 Noroeste 0 -- -- 72
2018-05-14 02:00:00 9.1 18 Norte 22 Norte 0 -- -- 69
2018-05-14 01:00:00 10.1 3 Norte 14 Norte 0 -- -- 63
2018-05-11 20:00:00 -- -- -- -- -- -- -- -- --
2018-05-11 19:00:00 -- -- -- -- -- -- -- -- --
2018-05-11 18:00:00 23.3 11 Sudoeste 24 Oeste 0 -- -- 47
2018-05-11 17:00:00 22.3 9 Sudoeste 19 Oeste 0 -- -- 51
2018-05-11 16:00:00 21.8 9 Sudeste 24 Sudeste 0 -- -- 53
2018-05-11 15:00:00 21.7 12 Sudeste 22 Sudeste 0 -- -- 52
2018-05-11 14:00:00 20.6 11 Sur 27 Sur 0 -- -- 53
2018-05-11 13:00:00 20.1 15 Sur 25 Sur 0 -- -- 58
2018-05-11 12:00:00 18.9 13 Sudeste 24 Sudeste 0 -- -- 64
2018-05-11 11:00:00 17.6 9 Este 16 Este 0 -- -- 70
2018-05-11 10:00:00 16 9 Sudeste 13 Sudeste 0 -- -- 79
2018-05-11 09:00:00 12.4 10 Este 14 Sudeste 0 -- -- 88
2018-05-11 08:00:00 10.9 4 Sudeste 9 Sudeste 0 -- -- 90
2018-05-11 07:00:00 10.9 6 Sudeste 8 Sudeste 0 -- -- 89
2018-05-11 06:00:00 11.1 3 Sudeste 4 Sudeste 0 -- -- 89
2018-05-11 05:00:00 11.6 4 Sudoeste 8 Sudoeste 0 -- -- 86
2018-05-11 04:00:00 11.2 4 Sur 19 Este 0 -- -- 88
2018-05-11 03:00:00 11.1 16 Este 21 Este 0 -- -- 87
2018-05-11 02:00:00 12.9 12 Este 17 Este 0 -- -- 79
2018-05-11 01:00:00 12.6 13 Sudeste 21 Sudeste 0 -- -- 82
2018-05-11 00:00:00 13 17 Sudeste 22 Sudeste 0 -- -- 80
2018-05-10 23:00:00 13.6 12 Sudeste 15 Sur 0 -- -- 79
2018-05-10 22:00:00 15.3 14 Sudeste 21 Sur 0 -- -- 69
2018-05-10 21:00:00 18 15 Sudeste 20 Sudeste 0 -- -- 64
2018-05-10 20:00:00 20.4 14 Sudeste 21 Sudeste 0 -- -- 62
2018-05-10 19:00:00 21.4 7 Sudeste 19 Sudeste 0 -- -- 59
2018-05-10 18:00:00 21.8 7 Este 23 Este 0 -- -- 58
2018-05-10 17:00:00 21.3 14 Este 23 Este 0 -- -- 60
2018-05-10 16:00:00 21.7 6 Sudeste 18 Sudeste 0 -- -- 58
2018-05-10 15:00:00 20.7 9 Sudeste 19 Sudeste 0 -- -- 57
2018-05-10 14:00:00 19.8 6 Sudeste 19 Sudeste 0 -- -- 65
2018-05-10 13:00:00 18.3 9 Sudeste 23 Sudeste 0 -- -- 68
2018-05-10 12:00:00 16.9 11 Este 22 Este 0 -- -- 74
2018-05-10 11:00:00 14.5 3 Sudeste 12 Este 0 -- -- 83
2018-05-10 10:00:00 10.7 3 Norte 7 Sur 0 -- -- 92
2018-05-10 09:00:00 9.6 4 Sur 8 Sur 0 -- -- 96
2018-05-10 08:00:00 8.3 4 Oeste 12 Oeste 0 -- -- 96
2018-05-10 07:00:00 7.9 9 Oeste 13 Oeste 0 -- -- 95
2018-05-10 06:00:00 8.8 5 Sur 17 Oeste 0 -- -- 94
2018-05-10 05:00:00 8.9 12 Oeste 17 Oeste 0 -- -- 94
2018-05-10 04:00:00 9.3 12 Sudoeste 27 Oeste 0 -- -- 92
2018-05-10 03:00:00 10.3 18 Oeste 25 Oeste 0 -- -- 93
2018-05-10 02:00:00 11 10 Sudoeste 17 Sudoeste 0 -- -- 94
2018-05-10 01:00:00 11.9 13 Oeste 21 Oeste 0 -- -- 94
2018-05-10 00:00:00 12.3 11 Oeste 24 Oeste 0 -- -- 93
2018-05-09 23:00:00 13.5 20 Oeste 28 Oeste 0 -- -- 91
2018-05-09 22:00:00 13.3 14 Oeste 23 Oeste 0 -- -- 90
2018-05-09 21:00:00 14.1 18 Oeste 34 Oeste 0 -- -- 86
2018-05-09 20:00:00 14.9 25 Oeste 35 Oeste 0 -- -- 84
2018-05-09 19:00:00 16.1 22 Oeste 36 Oeste 0 -- -- 81
2018-05-09 18:00:00 18 24 Oeste 34 Oeste 0 -- -- 76
2018-05-09 17:00:00 19.5 22 Oeste 31 Oeste 0 -- -- 74
2018-05-09 16:00:00 20.3 17 Oeste 23 Oeste 0 -- -- 76
2018-05-09 15:00:00 19.1 15 Noroeste 22 Oeste 0 -- -- 81
2018-05-09 14:00:00 18 10 Noroeste 20 Noroeste 0 -- -- 83
2018-05-09 13:00:00 16.5 7 Oeste 17 Noroeste 0 -- -- 85
2018-05-09 12:00:00 15.2 12 Noroeste 18 Noroeste 0 -- -- 87
2018-05-09 11:00:00 16.2 14 Noroeste 18 Noroeste 0 -- -- 84
2018-05-09 10:00:00 15.9 3 Sudoeste 6 Sur 0 -- -- 86
2018-05-09 09:00:00 12.8 5 Sudeste 8 Sudeste 0 -- -- 97
2018-05-09 08:00:00 10.1 6 Sudeste 10 Sur 0 -- -- 97
2018-05-09 07:00:00 10.2 4 Oeste 18 Noroeste 0 -- -- 96
2018-05-09 06:00:00 10.7 8 Noroeste 16 Noroeste 0 -- -- 95
2018-05-09 05:00:00 11.5 9 Oeste 13 Oeste 0 -- -- 92
2018-05-09 04:00:00 12.4 5 Sur 12 Sudeste 0 -- -- 90
2018-05-09 03:00:00 12.7 10 Sudeste 25 Este 0 -- -- 88
2018-05-09 02:00:00 13.4 7 Sudeste 17 Este 0 -- -- 83
2018-05-09 01:00:00 13.4 4 Sur 14 Este 0 -- -- 83
2018-05-09 00:00:00 13.5 5 Sudoeste 12 Sudoeste 0 -- -- 86
2018-05-08 23:00:00 13.4 2 Sur 30 Sudeste 0 -- -- 90
2018-05-08 22:00:00 14 20 Sudeste 58 Este 0 -- -- 87
2018-05-08 21:00:00 18 15 Sudeste 19 Sudeste 0 -- -- 80
2018-05-08 20:00:00 19.3 14 Oeste 29 Oeste 0 -- -- 77
2018-05-08 19:00:00 21.4 23 Oeste 36 Oeste 0 -- -- 68
2018-05-08 18:00:00 21.8 24 Oeste 34 Noroeste 0 -- -- 66
2018-05-08 17:00:00 21.2 19 Oeste 29 Oeste 0.8 -- -- 76
2018-05-08 16:00:00 17.5 16 Oeste 36 Noroeste 0.2 -- -- 77
2018-05-08 15:00:00 23.1 11 Oeste 21 Oeste 0 -- -- 55
2018-05-08 14:00:00 22 10 Oeste 25 Noroeste 0 -- -- 63
2018-05-08 13:00:00 21.2 14 Noroeste 21 Noroeste 0 -- -- 63
2018-05-08 12:00:00 19.8 10 Oeste 17 Oeste 0 -- -- 72
2018-05-08 11:00:00 18.4 8 Oeste 16 Sudoeste 0 -- -- 77
2018-05-08 10:00:00 15.9 9 Sudoeste 14 Sudoeste 0 -- -- 89
2018-05-08 09:00:00 14 6 Sur 9 Sur 0 -- -- 92
2018-05-08 08:00:00 13.2 4 Oeste 10 Sudoeste 0 -- -- 90
2018-05-08 07:00:00 13.1 6 Sudoeste 10 Sudoeste 0 -- -- 89
2018-05-08 06:00:00 13.2 5 Sudoeste 8 Sudoeste 0 -- -- 88
2018-05-08 05:00:00 13.2 4 Sudoeste 8 Sudoeste 0 -- -- 89
2018-05-08 04:00:00 13.1 6 Sudoeste 8 Sudoeste 0 -- -- 90
2018-05-08 03:00:00 13.3 5 Sudoeste 8 Sudoeste 0 -- -- 90
2018-05-08 02:00:00 13.4 2 Oeste 9 Oeste 0 -- -- 92
2018-05-08 01:00:00 13.7 5 Oeste 9 Sudoeste 0 -- -- 91
2018-05-08 00:00:00 13.8 8 Oeste 13 Oeste 0 -- -- 89
2018-05-07 23:00:00 14.3 11 Oeste 17 Oeste 0 -- -- 87
2018-05-07 22:00:00 15.3 8 Oeste 13 Oeste 0 -- -- 85
2018-05-07 21:00:00 15.8 9 Oeste 14 Oeste 0 -- -- 81
2018-05-07 20:00:00 16.3 5 Sudoeste 15 Sudoeste 0 -- -- 80
2018-05-07 19:00:00 16 14 Sudoeste 30 Oeste 0 -- -- 78
2018-05-07 18:00:00 16.9 17 Oeste 38 Sudoeste 0 -- -- 79
2018-05-07 17:00:00 14.6 21 Sudeste 57 Sudeste 5 -- -- 85
2018-05-07 16:00:00 21.1 13 Oeste 21 Oeste 0 -- -- 60
2018-05-07 15:00:00 22 3 Nordeste 14 Este 0 -- -- 53
2018-05-07 14:00:00 23.5 7 Nordeste 17 Sudeste 0 -- -- 50
2018-05-07 13:00:00 22.2 5 Nordeste 14 Este 0 -- -- 54
2018-05-07 12:00:00 21.5 5 Este 15 Este 0 -- -- 55
2018-05-07 11:00:00 19.7 3 Sur 6 Este 0 -- -- 59
2018-05-07 10:00:00 17.8 0 Calma 5 Este 0 -- -- 62
2018-05-07 09:00:00 15.1 6 Este 10 Sudeste 0 -- -- 78
2018-05-07 08:00:00 12.9 10 Sudeste 19 Este 0 -- -- 76
2018-05-07 07:00:00 11.8 11 Este 22 Sudeste 0 -- -- 88
2018-05-07 06:00:00 12 15 Este 21 Sudeste 0 -- -- 89
2018-05-07 05:00:00 12.9 18 Sudeste 23 Sudeste 0 -- -- 84
2018-05-07 04:00:00 13.4 15 Sudeste 19 Sudeste 0 -- -- 80
2018-05-07 03:00:00 13.8 15 Sudeste 17 Sudeste 0 -- -- 79
2018-05-07 02:00:00 13.8 9 Este 14 Sudeste 0 -- -- 80
2018-05-07 01:00:00 13.9 10 Sudeste 12 Sudeste 0 -- -- 81
2018-05-07 00:00:00 14.5 4 Noroeste 6 Noroeste 0 -- -- 78
2018-05-06 23:00:00 15.2 0 Calma 8 Sudoeste 0 -- -- 78
2018-05-06 22:00:00 15.8 5 Sudoeste 18 Oeste 0 -- -- 77
2018-05-06 21:00:00 17.3 12 Oeste 19 Oeste 0 -- -- 73
2018-05-06 20:00:00 19.2 10 Sudeste 19 Sudeste 0 -- -- 62
2018-05-06 19:00:00 19.5 9 Este 26 Este 0.6 -- -- 67
2018-05-06 18:00:00 18.5 22 Este 35 Este 0.6 -- -- 70
2018-05-06 17:00:00 23.1 8 Este 23 Sudeste 0 -- -- 50
2018-05-06 16:00:00 22.6 12 Este 26 Este 0 -- -- 54
2018-05-06 15:00:00 23.2 15 Este 30 Este 0 -- -- 54
2018-05-06 14:00:00 22 10 Sudeste 21 Sudeste 0 -- -- 50
2018-05-06 13:00:00 21.1 11 Sudeste 22 Este 0 -- -- 58
2018-05-06 12:00:00 19.3 17 Sudeste 30 Sudeste 0 -- -- 60
2018-05-06 11:00:00 18.8 20 Sudeste 29 Este 0 -- -- 60
2018-05-06 10:00:00 17.1 12 Este 21 Este 0 -- -- 64
2018-05-06 09:00:00 14.2 17 Este 22 Este 0 -- -- 70
2018-05-06 08:00:00 14.4 13 Este 20 Este 0 -- -- 62
2018-05-06 07:00:00 14.5 13 Este 17 Este 0 -- -- 59
2018-05-06 06:00:00 14.7 13 Este 14 Este 0 -- -- 58
2018-05-06 05:00:00 13.4 6 Este 8 Nordeste 0 -- -- 63
2018-05-06 04:00:00 13.9 6 Nordeste 7 Nordeste 0 -- -- 65
2018-05-06 03:00:00 15.4 2 Sur 3 Sur 0 -- -- 60
2018-05-06 02:00:00 15.8 3 Sur 4 Sur 0 -- -- 60
2018-05-06 01:00:00 16.1 2 Sur 5 Este 0 -- -- 61
2018-05-06 00:00:00 17.1 4 Este 8 Este 0 -- -- 52
2018-05-05 23:00:00 17.2 6 Este 11 Norte 0 -- -- 57
2018-05-05 22:00:00 18 8 Noroeste 12 Noroeste 0 -- -- 61
2018-05-05 21:00:00 20.1 4 Noroeste 11 Oeste 0 -- -- 58
2018-05-05 20:00:00 22.2 6 Oeste 14 Sudoeste 0 -- -- 51
2018-05-05 19:00:00 20.8 10 Sudoeste 14 Sudoeste 0 -- -- 54
2018-05-05 18:00:00 22.7 3 Sudoeste 12 Sur 0 -- -- 50
2018-05-05 17:00:00 21.4 3 Norte 18 Norte 0 -- -- 46
2018-05-05 16:00:00 22.8 5 Sur 14 Sudoeste 0 -- -- 40
2018-05-05 15:00:00 22.6 4 Noroeste 20 Sudeste 0 -- -- 50
2018-05-05 14:00:00 21.9 5 Este 17 Este 0 -- -- 45
2018-05-05 13:00:00 21.2 8 Este 16 Este 0 -- -- 44
2018-05-05 12:00:00 20 9 Este 16 Este 0 -- -- 51
2018-05-05 11:00:00 18.7 9 Este 15 Este 0 -- -- 52
2018-05-05 10:00:00 16.8 8 Este 12 Este 0 -- -- 65
2018-05-05 09:00:00 14 8 Este 12 Este 0 -- -- 72
2018-05-05 08:00:00 10.9 6 Nordeste 16 Este 0 -- -- 76
2018-05-05 07:00:00 12.5 14 Este 15 Este 0 -- -- 64
2018-05-05 06:00:00 11.8 12 Este 13 Este 0 -- -- 74
2018-05-05 05:00:00 11.2 9 Sudeste 10 Sudeste 0 -- -- 77
2018-05-05 04:00:00 11.5 4 Sudeste 8 Sudeste 0 -- -- 80
2018-05-05 03:00:00 11.4 6 Sudeste 9 Sudeste 0 -- -- 82
2018-05-05 02:00:00 11.7 9 Sudeste 17 Sudeste 0 -- -- 81
2018-05-05 01:00:00 11.7 10 Este 20 Este 0 -- -- 90
2018-05-05 00:00:00 11.2 17 Este 19 Este 0 -- -- 80
2018-05-04 23:00:00 11.8 14 Este 23 Este 0 -- -- 67
2018-05-04 22:00:00 12 11 Nordeste 13 Nordeste 0 -- -- 67
2018-05-04 21:00:00 14.6 13 Nordeste 19 Nordeste 0 -- -- 57
2018-05-04 20:00:00 17.6 15 Nordeste 21 Nordeste 0 -- -- 44
2018-05-04 19:00:00 19.2 14 Norte 23 Norte 0 -- -- 42
2018-05-04 18:00:00 19.8 8 Noroeste 21 Norte 0 -- -- 44
2018-05-04 17:00:00 19.6 8 Norte 22 Nordeste 0 -- -- 45
2018-05-04 16:00:00 19.2 8 Nordeste 27 Nordeste 0 -- -- 46
2018-05-04 15:00:00 19.1 11 Nordeste 22 Nordeste 0 -- -- 49
2018-05-04 14:00:00 18.5 11 Nordeste 26 Nordeste 0 -- -- 54
2018-05-04 13:00:00 17.7 15 Nordeste 26 Nordeste 0 -- -- 54
2018-05-04 12:00:00 16.3 15 Nordeste 27 Este 0 -- -- 60
2018-05-04 11:00:00 14.1 17 Este 32 Este 0 -- -- 64
2018-05-04 10:00:00 12.3 19 Nordeste 27 Nordeste 0 -- -- 67
2018-05-04 09:00:00 9.8 12 Nordeste 17 Nordeste 0 -- -- 83
2018-05-04 08:00:00 6.6 14 Nordeste 16 Nordeste 0 -- -- 85
2018-05-04 07:00:00 7.6 7 Nordeste 8 Nordeste 0 -- -- 77
2018-05-04 06:00:00 8.9 4 Norte 6 Norte 0 -- -- 75
2018-05-04 05:00:00 9.8 0 Calma 4 Sur 0 -- -- 76
2018-05-04 04:00:00 9.8 3 Sur 6 Sudoeste 0 -- -- 83
2018-05-04 03:00:00 10.3 4 Oeste 7 Oeste 0 -- -- 80
2018-05-04 02:00:00 10.4 4 Sur 8 Oeste 0 -- -- 84
2018-05-04 01:00:00 10.9 6 Noroeste 18 Noroeste 0 -- -- 83
2018-05-04 00:00:00 12.3 16 Noroeste 18 Noroeste 0 -- -- 79
2018-05-03 23:00:00 12.7 15 Noroeste 17 Noroeste 0 -- -- 78
2018-05-03 22:00:00 13.8 12 Noroeste 21 Noroeste 0 -- -- 75
2018-05-03 21:00:00 15.8 17 Noroeste 39 Noroeste 0 -- -- 66
2018-05-03 20:00:00 18 26 Noroeste 33 Noroeste 0 -- -- 57
2018-05-03 19:00:00 17.5 14 Noroeste 35 Noroeste 0 -- -- 59
2018-05-03 18:00:00 19 22 Noroeste 33 Noroeste 0 -- -- 54
2018-05-03 17:00:00 19.3 13 Noroeste 26 Noroeste 0 -- -- 52
2018-05-03 16:00:00 19.1 14 Noroeste 30 Noroeste 0 -- -- 55
2018-05-03 15:00:00 18.7 12 Noroeste 23 Noroeste 0 -- -- 53
2018-05-03 14:00:00 17.7 12 Noroeste 22 Noroeste 0 -- -- 63
2018-05-03 13:00:00 16.4 14 Noroeste 23 Noroeste 0 -- -- 69
2018-05-03 12:00:00 14.9 10 Noroeste 17 Noroeste 0 -- -- 74
2018-05-03 11:00:00 12.5 7 Oeste 14 Noroeste 0 -- -- 85
2018-05-03 10:00:00 10.4 5 Oeste 12 Oeste 0 -- -- 89
2018-05-03 09:00:00 8.6 4 Oeste 8 Sudoeste 0 -- -- 92
2018-05-03 08:00:00 6.9 5 Sudoeste 7 Sudoeste 0 -- -- 95
2018-05-03 07:00:00 6.3 5 Sudoeste 9 Sudoeste 0 -- -- 94
2018-05-03 06:00:00 6.6 4 Sudoeste 8 Sudoeste 0 -- -- 93
2018-05-03 05:00:00 6.6 5 Sudoeste 8 Sudoeste 0 -- -- 92
2018-05-03 04:00:00 6.7 5 Sudoeste 9 Oeste 0 -- -- 91
2018-05-03 03:00:00 7.3 5 Oeste 6 Oeste 0 -- -- 88
2018-05-03 02:00:00 7.6 6 Oeste 7 Oeste 0 -- -- 86
2018-05-03 01:00:00 8.2 4 Oeste 5 Oeste 0 -- -- 84
2018-05-03 00:00:00 8.4 4 Oeste 15 Noroeste 0 -- -- 84
2018-05-02 23:00:00 8.7 13 Noroeste 19 Noroeste 0 -- -- 83
2018-05-02 22:00:00 9.9 15 Noroeste 21 Noroeste 0 -- -- 75
2018-05-02 21:00:00 11.8 13 Noroeste 20 Noroeste 0 -- -- 66
2018-05-02 20:00:00 13.6 13 Noroeste 22 Noroeste 0 -- -- 60
2018-05-02 19:00:00 14.4 14 Noroeste 25 Noroeste 0 -- -- 58
2018-05-02 18:00:00 15.5 9 Oeste 26 Noroeste 0 -- -- 45
2018-05-02 17:00:00 15.9 13 Noroeste 27 Noroeste 0 -- -- 50
2018-05-02 16:00:00 15.9 10 Oeste 31 Oeste 0 -- -- 44
2018-05-02 15:00:00 14.8 15 Oeste 24 Noroeste 0 -- -- 48
2018-05-02 14:00:00 14.2 11 Oeste 26 Oeste 0 -- -- 57
2018-05-02 13:00:00 12.9 11 Noroeste 22 Noroeste 0 -- -- 54
2018-05-02 12:00:00 11.3 4 Oeste 12 Oeste 0 -- -- 69
2018-05-02 11:00:00 9.1 5 Oeste 9 Noroeste 0 -- -- 74
2018-05-02 10:00:00 6.7 0 Calma 8 Oeste 0 -- -- 89
2018-05-02 09:00:00 5.7 6 Oeste 9 Oeste 0 -- -- 89
2018-05-02 08:00:00 3.8 5 Oeste 8 Oeste 0 -- -- 90
2018-05-02 07:00:00 4.2 7 Oeste 8 Oeste 0 -- -- 86
2018-05-02 06:00:00 4.3 6 Sudoeste 11 Sudoeste 0 -- -- 88
2018-05-02 05:00:00 4.4 8 Sudoeste 9 Sudoeste 0 -- -- 88
2018-05-02 04:00:00 5.1 5 Sudoeste 10 Sudoeste 0 -- -- 88
2018-05-02 03:00:00 5.4 9 Oeste 13 Sudoeste 0 -- -- 87
2018-05-02 02:00:00 6.4 9 Oeste 17 Oeste 0 -- -- 88
2018-05-02 01:00:00 7.5 12 Oeste 23 Oeste 0 -- -- 85
2018-05-02 00:00:00 8.2 3 Sur 8 Sudoeste 0 -- -- 75
2018-05-01 23:00:00 7.4 6 Sudoeste 12 Sudoeste 0 -- -- 78
2018-05-01 22:00:00 8.8 5 Sudoeste 8 Sur 0 -- -- 72
2018-05-01 21:00:00 9.9 6 Oeste 19 Oeste 0 -- -- 69
2018-05-01 20:00:00 11.6 11 Oeste 22 Sudoeste 0 -- -- 66
2018-05-01 19:00:00 11.9 17 Oeste 23 Oeste 0 -- -- 66
2018-05-01 18:00:00 12.8 18 Noroeste 41 Norte 0 -- -- 57
2018-05-01 17:00:00 12.9 32 Norte 50 Norte 0 -- -- 55
2018-05-01 16:00:00 10 31 Nordeste 44 Nordeste 0 -- -- 67
2018-05-01 15:00:00 13.6 22 Noroeste 40 Noroeste 0 -- -- 61
2018-05-01 14:00:00 11.6 15 Oeste 27 Oeste 0.2 -- -- 72
2018-05-01 13:00:00 9.4 17 Noroeste 21 Noroeste 0 -- -- 82
2018-05-01 12:00:00 10.3 9 Oeste 14 Oeste 0 -- -- 80
2018-05-01 11:00:00 8 8 Noroeste 17 Oeste 0 -- -- 94
2018-05-01 10:00:00 7 13 Oeste 18 Oeste 0 -- -- 96
2018-05-01 09:00:00 6.4 9 Oeste 14 Oeste 0 -- -- 96
2018-05-01 08:00:00 6.5 5 Noroeste 12 Noroeste 0 -- -- 96
2018-05-01 07:00:00 6.3 3 Sudoeste 12 Oeste 0 -- -- 95
2018-05-01 06:00:00 6 5 Oeste 7 Sudoeste 0 -- -- 93
2018-05-01 05:00:00 6.6 3 Sudoeste 8 Sudoeste 0 -- -- 91
2018-05-01 04:00:00 6.4 5 Sudoeste 9 Sudoeste 0 -- -- 90
2018-05-01 03:00:00 6 7 Sudoeste 11 Sudoeste 0 -- -- 89
2018-05-01 02:00:00 6.1 7 Sudoeste 10 Sudoeste 0 -- -- 85
2018-05-01 01:00:00 6.6 3 Oeste 10 Oeste 0 -- -- 84
2018-05-01 00:00:00 6.9 10 Noroeste 16 Noroeste 0 -- -- 83
2018-04-30 23:00:00 9.1 4 Oeste 4 Oeste 0 -- -- 67
2018-04-30 22:00:00 9.5 0 Calma 22 Norte 0 -- -- 65
2018-04-30 21:00:00 10 18 Norte 25 Oeste 0 -- -- 71
2018-04-30 20:00:00 12.7 17 Oeste 33 Oeste 0 -- -- 57
2018-04-30 19:00:00 13.6 20 Noroeste 34 Oeste 0 -- -- 58
2018-04-30 18:00:00 13.2 20 Noroeste 33 Noroeste 0 -- -- 59
2018-04-30 17:00:00 12.9 14 Noroeste 26 Noroeste 0 -- -- 56
2018-04-30 16:00:00 12.7 10 Sudoeste 20 Oeste 0 -- -- 66
2018-04-30 15:00:00 12.4 12 Sur 21 Sur 0 -- -- 71
2018-04-30 14:00:00 11.6 6 Sudoeste 14 Sudoeste 0 -- -- 72
2018-04-30 13:00:00 10 10 Sudoeste 17 Sudoeste 0.2 -- -- 84
2018-04-30 12:00:00 8.1 7 Oeste 13 Noroeste 0.2 -- -- 88
2018-04-30 11:00:00 7.5 4 Oeste 8 Oeste 0 -- -- 91
2018-04-30 10:00:00 6.2 3 Sur 5 Sur 0 -- -- 95
2018-04-30 09:00:00 5.3 3 Sur 5 Sudeste 0 -- -- 96
2018-04-30 08:00:00 3.8 4 Sur 8 Sudoeste 0 -- -- 96
2018-04-30 07:00:00 3.4 6 Sudoeste 10 Oeste 0 -- -- 96
2018-04-30 06:00:00 3.4 8 Oeste 13 Oeste 0 -- -- 95
2018-04-30 05:00:00 3.5 11 Oeste 13 Oeste 0 -- -- 94
2018-04-30 04:00:00 3.9 9 Oeste 15 Oeste 0 -- -- 92
2018-04-30 03:00:00 4.8 11 Oeste 18 Oeste 0 -- -- 92
2018-04-30 02:00:00 4.2 12 Oeste 17 Oeste 0 -- -- 90
2018-04-30 01:00:00 4.7 13 Sudoeste 17 Sudoeste 0 -- -- 88
2018-04-30 00:00:00 5.1 10 Sudoeste 15 Sudoeste 0 -- -- 87
2018-04-29 23:00:00 6 8 Sudoeste 14 Oeste 0 -- -- 83
2018-04-29 22:00:00 6.8 11 Oeste 23 Oeste 0 -- -- 81
2018-04-29 21:00:00 8.8 21 Oeste 36 Oeste 0 -- -- 70
2018-04-29 20:00:00 10.4 28 Oeste 49 Oeste 0 -- -- 70
2018-04-29 19:00:00 11.8 30 Sudoeste 43 Sudoeste 0 -- -- 67
2018-04-29 18:00:00 10.8 32 Oeste 42 Oeste 0 -- -- 75
2018-04-29 17:00:00 11.3 30 Sudoeste 48 Sudoeste 0.6 -- -- 85
2018-04-29 16:00:00 11.3 35 Sudoeste 47 Sudoeste 0 -- -- 72
2018-04-29 15:00:00 10.3 23 Noroeste 53 Oeste 0 -- -- 87
2018-04-29 14:00:00 10.3 20 Oeste 32 Oeste 0.2 -- -- 87
2018-04-29 13:00:00 7 28 Oeste 47 Noroeste 0.8 -- -- 90
2018-04-29 12:00:00 8.1 34 Oeste 48 Oeste 0.4 -- -- 82
2018-04-29 11:00:00 8.2 31 Oeste 41 Sudoeste 0 -- -- 81
2018-04-29 10:00:00 7.1 26 Oeste 39 Sudoeste 0 -- -- 88
2018-04-29 09:00:00 6.1 20 Oeste 36 Oeste 0 -- -- 93
2018-04-29 08:00:00 5.7 24 Oeste 32 Oeste 0 -- -- 95
2018-04-29 07:00:00 5.3 28 Oeste 39 Oeste 0 -- -- 94
2018-04-29 06:00:00 5.4 22 Oeste 35 Oeste 0 -- -- 94
2018-04-29 05:00:00 5.4 22 Oeste 35 Sudoeste 0 -- -- 95
2018-04-29 04:00:00 5.4 24 Sudoeste 33 Sudoeste 0 -- -- 95
2018-04-29 03:00:00 5.3 24 Oeste 37 Sudoeste 0 -- -- 93
2018-04-29 02:00:00 5.8 23 Sudoeste 39 Sudoeste 0 -- -- 94
2018-04-29 01:00:00 5.8 23 Sudoeste 40 Sudoeste 0 -- -- 94
2018-04-29 00:00:00 6.8 22 Sudoeste 33 Sudoeste 0.4 -- -- 94
2018-04-28 23:00:00 7.1 20 Sudoeste 44 Sudoeste 0.4 -- -- 93
2018-04-28 22:00:00 7.7 17 Sur 22 Sur 0.2 -- -- 90
2018-04-28 21:00:00 7.4 21 Sudoeste 36 Sudoeste 2.2 -- -- 91
2018-04-28 20:00:00 10.5 26 Sudoeste 33 Sudoeste 0 -- -- 73
2018-04-28 19:00:00 12.4 15 Sudoeste 27 Sudoeste 0 -- -- 60
2018-04-28 18:00:00 13.2 14 Oeste 27 Oeste 0 -- -- 55
2018-04-28 17:00:00 12.4 19 Oeste 32 Oeste 0 -- -- 61
2018-04-28 16:00:00 12.5 21 Oeste 32 Oeste 0 -- -- 59
2018-04-28 15:00:00 12.8 19 Oeste 31 Oeste 0 -- -- 60
2018-04-28 14:00:00 11.5 18 Oeste 33 Oeste 0 -- -- 65
2018-04-28 13:00:00 12 21 Oeste 35 Oeste 0 -- -- 62
2018-04-28 12:00:00 10.6 19 Oeste 34 Oeste 0 -- -- 72
2018-04-28 11:00:00 9.8 18 Oeste 29 Noroeste 0 -- -- 72
2018-04-28 10:00:00 8.3 13 Oeste 20 Oeste 0 -- -- 79
2018-04-28 09:00:00 6.7 6 Oeste 13 Oeste 0 -- -- 85
2018-04-28 08:00:00 4.5 6 Oeste 18 Oeste 0 -- -- 90
2018-04-28 07:00:00 5.5 13 Oeste 34 Oeste 0 -- -- 84
2018-04-28 06:00:00 7.9 23 Oeste 34 Oeste 0 -- -- 88
2018-04-28 05:00:00 8.5 18 Oeste 28 Oeste 0 -- -- 93
2018-04-28 04:00:00 10.1 24 Oeste 32 Oeste 0 -- -- 93
2018-04-28 03:00:00 10.4 18 Oeste 23 Oeste 0 -- -- 95
2018-04-28 02:00:00 11 15 Oeste 26 Oeste 0 -- -- 95
2018-04-28 01:00:00 11 17 Oeste 26 Oeste 0 -- -- 93
2018-04-28 00:00:00 11.8 14 Oeste 18 Oeste 0 -- -- 90
2018-04-27 23:00:00 12.5 12 Oeste 19 Oeste 0 -- -- 87
2018-04-27 22:00:00 13.5 14 Oeste 22 Oeste 0 -- -- 83
2018-04-27 21:00:00 15.5 18 Oeste 27 Oeste 0 -- -- 72
2018-04-27 20:00:00 17.7 19 Oeste 32 Oeste 0 -- -- 54
2018-04-27 19:00:00 19 23 Oeste 32 Oeste 0 -- -- 53
2018-04-27 18:00:00 19.7 20 Oeste 30 Oeste 0 -- -- 52
2018-04-27 17:00:00 20.2 17 Oeste 34 Oeste 0 -- -- 53
2018-04-27 16:00:00 20.3 15 Oeste 42 Noroeste 0 -- -- 54
2018-04-27 15:00:00 19.6 10 Noroeste 23 Noroeste 0 -- -- 56
2018-04-27 14:00:00 18.8 12 Noroeste 19 Noroeste 0 -- -- 55
2018-04-27 13:00:00 17.5 5 Oeste 18 Oeste 0 -- -- 57
2018-04-27 12:00:00 15.8 9 Oeste 14 Oeste 0 -- -- 65
2018-04-27 11:00:00 14.2 9 Oeste 16 Oeste 0 -- -- 76
2018-04-27 10:00:00 12.6 12 Oeste 15 Oeste 0 -- -- 80
2018-04-27 09:00:00 11 9 Oeste 16 Oeste 0 -- -- 97
2018-04-27 08:00:00 11.3 12 Oeste 18 Oeste 0 -- -- 96
2018-04-27 07:00:00 11.6 15 Oeste 20 Oeste 0 -- -- 95
2018-04-27 06:00:00 12.7 11 Oeste 15 Oeste 0 -- -- 94
2018-04-27 05:00:00 14 12 Sudoeste 19 Sudoeste 0 -- -- 94
2018-04-27 04:00:00 14.6 14 Oeste 22 Sudoeste 0 -- -- 94
2018-04-27 03:00:00 15.1 18 Sudoeste 27 Sudoeste 0 -- -- 93
2018-04-27 02:00:00 15.9 15 Sudoeste 21 Oeste 0 -- -- 93
2018-04-27 01:00:00 16 16 Oeste 25 Sudoeste 0 -- -- 90
2018-04-27 00:00:00 16.5 9 Sur 17 Sudoeste 0 -- -- 90
2018-04-26 23:00:00 17.3 8 Sudoeste 15 Sudoeste 0 -- -- 87
2018-04-26 22:00:00 18.1 11 Sudoeste 22 Sudoeste 0 -- -- 85
2018-04-26 21:00:00 19.9 13 Sudoeste 31 Sudoeste 0 -- -- 71
2018-04-26 20:00:00 21.3 15 Sudoeste 25 Sur 0 -- -- 63
2018-04-26 19:00:00 26.1 6 Noroeste 9 Oeste 0 -- -- 47
2018-04-26 18:00:00 25.3 4 Norte 14 Nordeste 0 -- -- 42
2018-04-26 17:00:00 24.9 7 Este 24 Sudoeste 0 -- -- 47
2018-04-26 16:00:00 24.6 6 Sudeste 20 Sudeste 0 -- -- 51
2018-04-26 15:00:00 23.9 10 Sudeste 21 Este 0 -- -- 55
2018-04-26 14:00:00 23.4 9 Este 19 Este 0 -- -- 58
2018-04-26 13:00:00 22.4 12 Este 20 Este 0 -- -- 59
2018-04-26 12:00:00 21.1 10 Este 18 Este 0 -- -- 59
2018-04-26 11:00:00 18.9 14 Este 24 Este 0 -- -- 65
2018-04-26 10:00:00 17.4 6 Este 11 Este 0 -- -- 75
2018-04-26 09:00:00 14.5 0 Calma 6 Noroeste 0 -- -- 90
2018-04-26 08:00:00 12.8 0 Calma 5 Oeste 0 -- -- 95
2018-04-26 07:00:00 12.7 4 Oeste 10 Noroeste 0 -- -- 95
2018-04-26 06:00:00 12.7 8 Noroeste 9 Noroeste 0 -- -- 93
2018-04-26 05:00:00 13 9 Oeste 15 Noroeste 0 -- -- 91
2018-04-26 04:00:00 14 6 Noroeste 11 Oeste 0 -- -- 82
2018-04-26 03:00:00 15.1 5 Sur 23 Este 0 -- -- 74
2018-04-26 02:00:00 14.8 12 Sudeste 24 Este 0 -- -- 77
2018-04-26 01:00:00 16.4 21 Sudeste 31 Este 0 -- -- 68
2018-04-26 00:00:00 17.8 19 Este 42 Este 0 -- -- 74
2018-04-25 23:00:00 17.9 12 Oeste 17 Noroeste 0 -- -- 69
2018-04-25 22:00:00 19.2 16 Noroeste 23 Noroeste 0 -- -- 64
2018-04-25 21:00:00 20.5 15 Noroeste 19 Noroeste 0 -- -- 61
2018-04-25 20:00:00 23.7 8 Noroeste 17 Norte 0 -- -- 61
2018-04-25 19:00:00 24.2 12 Norte 20 Norte 0 -- -- 52
2018-04-25 18:00:00 24.4 17 Norte 25 Norte 0 -- -- 46
2018-04-25 17:00:00 24.6 16 Norte 29 Norte 0 -- -- 49
2018-04-25 16:00:00 24.1 18 Norte 29 Norte 0 -- -- 56
2018-04-25 15:00:00 23.1 19 Norte 28 Norte 0 -- -- 58
2018-04-25 14:00:00 22.3 19 Norte 26 Norte 0 -- -- 64
2018-04-25 13:00:00 21.6 15 Nordeste 24 Nordeste 0 -- -- 70
2018-04-25 12:00:00 20.8 10 Nordeste 17 Nordeste 0 -- -- 70
2018-04-25 11:00:00 19.2 0 Calma 9 Nordeste 0 -- -- 74
2018-04-25 10:00:00 16.2 0 Calma 10 Oeste 0 -- -- 82
2018-04-25 09:00:00 13.5 3 Nordeste 12 Este 0 -- -- 84
2018-04-25 08:00:00 11.8 9 Nordeste 17 Este 0 -- -- 85
2018-04-25 07:00:00 12.4 14 Este 16 Este 0 -- -- 84
2018-04-25 06:00:00 12.5 10 Nordeste 13 Nordeste 0 -- -- 83
2018-04-25 05:00:00 12.9 11 Nordeste 12 Nordeste 0 -- -- 81
2018-04-25 04:00:00 14.2 5 Noroeste 10 Noroeste 0 -- -- 75
2018-04-25 03:00:00 15.4 5 Oeste 7 Oeste 0 -- -- 70
2018-04-25 02:00:00 15.7 3 Sur 8 Sudoeste 0 -- -- 69
2018-04-25 01:00:00 15.8 5 Sudoeste 7 Sur 0 -- -- 71
2018-04-25 00:00:00 15.6 4 Noroeste 8 Noroeste 0 -- -- 75
2018-04-24 23:00:00 16 7 Noroeste 14 Norte 0 -- -- 72
2018-04-24 22:00:00 16.1 7 Norte 12 Noroeste 0 -- -- 75
2018-04-24 21:00:00 17.4 9 Norte 13 Norte 0 -- -- 75
2018-04-24 20:00:00 18.9 10 Norte 17 Norte 0 -- -- 70
2018-04-24 19:00:00 20.7 13 Norte 20 Norte 0 -- -- 62
2018-04-24 18:00:00 21.6 10 Norte 17 Nordeste 0 -- -- 61
2018-04-24 17:00:00 20.3 15 Nordeste 24 Norte 0 -- -- 64
2018-04-24 16:00:00 20.6 18 Norte 22 Norte 0 -- -- 58
2018-04-24 15:00:00 20.3 14 Nordeste 21 Nordeste 0 -- -- 65
2018-04-24 14:00:00 20.7 10 Nordeste 15 Nordeste 0 -- -- 60
2018-04-24 13:00:00 19.6 9 Este 26 Este 0 -- -- 64
2018-04-24 12:00:00 18.2 16 Este 30 Nordeste 0 -- -- 65
2018-04-24 11:00:00 16.8 24 Este 37 Este 0 -- -- 66
2018-04-24 10:00:00 15.8 9 Nordeste 29 Noroeste 0 -- -- 72
2018-04-24 09:00:00 14.3 3 Nordeste 21 Este 0 -- -- 81
2018-04-24 08:00:00 14.5 14 Nordeste 21 Este 0 -- -- 79
2018-04-24 07:00:00 14.8 14 Este 20 Este 0 -- -- 76
2018-04-24 06:00:00 14.4 11 Nordeste 19 Este 0 -- -- 79
2018-04-24 05:00:00 15 7 Nordeste 18 Este 0 -- -- 78
2018-04-24 04:00:00 15.2 3 Este 24 Nordeste 0 -- -- 77
2018-04-24 03:00:00 15.9 20 Nordeste 23 Nordeste 0 -- -- 75
2018-04-24 02:00:00 15.6 18 Nordeste 23 Nordeste 0 -- -- 77
2018-04-24 01:00:00 15 12 Norte 15 Norte 0 -- -- 84
2018-04-24 00:00:00 16.4 11 Este 17 Nordeste 0 -- -- 77
2018-04-23 23:00:00 16.5 5 Norte 10 Norte 0 -- -- 80
2018-04-23 22:00:00 16.3 5 Norte 13 Norte 0 -- -- 81
2018-04-23 21:00:00 17.2 12 Norte 18 Nordeste 0 -- -- 81
2018-04-23 20:00:00 19.7 14 Nordeste 29 Nordeste 0 -- -- 74
2018-04-23 19:00:00 20.8 20 Nordeste 28 Nordeste 0 -- -- 68
2018-04-23 18:00:00 21.9 18 Nordeste 26 Nordeste 0 -- -- 65
2018-04-23 17:00:00 22.5 14 Nordeste 27 Nordeste 0 -- -- 65
2018-04-23 16:00:00 22.5 20 Nordeste 30 Nordeste 0 -- -- 62
2018-04-23 15:00:00 21.5 17 Nordeste 36 Este 0 -- -- 69
2018-04-23 14:00:00 21.3 25 Nordeste 41 Este 0 -- -- 66
2018-04-23 13:00:00 20.8 31 Este 45 Este 0 -- -- 64
2018-04-23 12:00:00 20.1 30 Este 43 Este 0 -- -- 63
2018-04-23 11:00:00 18.1 24 Nordeste 39 Nordeste 0 -- -- 67
2018-04-23 10:00:00 16.6 24 Nordeste 35 Nordeste 0 -- -- 71
2018-04-23 09:00:00 14.2 24 Nordeste 38 Nordeste 0 -- -- 83
2018-04-23 08:00:00 12.6 26 Nordeste 44 Nordeste 0.4 -- -- 92
2018-04-23 07:00:00 12.7 24 Nordeste 45 Nordeste 3.8 -- -- 95
2018-04-23 06:00:00 12.9 22 Nordeste 36 Nordeste 2.8 -- -- 94
2018-04-23 05:00:00 13.4 23 Nordeste 32 Nordeste 0.4 -- -- 92
2018-04-23 04:00:00 13.3 23 Nordeste 42 Sudeste 2.2 -- -- 94
2018-04-23 03:00:00 14.4 36 Este 48 Este 1.2 -- -- 88
2018-04-23 02:00:00 15.4 17 Sudeste 32 Sudeste 0.2 -- -- 74
2018-04-23 01:00:00 15.3 8 Noroeste 57 Sudeste 0.4 -- -- 85
2018-04-23 00:00:00 16.2 11 Este 29 Este 0.8 -- -- 87
2018-04-22 23:00:00 16 10 Sudoeste 24 Sudoeste 0.2 -- -- 90
2018-04-22 22:00:00 16.1 8 Norte 22 Norte 0.2 -- -- 88
2018-04-22 21:00:00 17.9 14 Norte 24 Norte 0 -- -- 81
2018-04-22 20:00:00 21.4 0 Calma 13 Sur 0 -- -- 64
2018-04-22 19:00:00 21.3 11 Sudeste 20 Sudeste 0 -- -- 57
2018-04-22 18:00:00 21.7 10 Este 21 Este 0 -- -- 58
2018-04-22 17:00:00 21.7 12 Sudeste 22 Sudeste 0 -- -- 57
2018-04-22 16:00:00 21.3 12 Sudeste 19 Sur 0 -- -- 60
2018-04-22 15:00:00 20.4 10 Sudeste 20 Este 0 -- -- 64
2018-04-22 14:00:00 19.3 11 Este 19 Este 0 -- -- 69
2018-04-22 13:00:00 18.3 10 Este 28 Este 0 -- -- 73
2018-04-22 12:00:00 17 22 Este 35 Nordeste 0 -- -- 78
2018-04-22 11:00:00 15 23 Nordeste 33 Nordeste 0 -- -- 84
2018-04-22 10:00:00 13.9 11 Este 16 Este 0 -- -- 86
2018-04-22 09:00:00 11.4 5 Este 18 Nordeste 0 -- -- 93
2018-04-22 08:00:00 10.8 12 Nordeste 34 Nordeste 0 -- -- 93
2018-04-22 07:00:00 11.1 18 Nordeste 35 Nordeste 0 -- -- 93
2018-04-22 06:00:00 11.3 14 Norte 30 Nordeste 0.4 -- -- 94
2018-04-22 05:00:00 11.1 16 Nordeste 30 Nordeste 0.2 -- -- 94
2018-04-22 04:00:00 11.3 15 Nordeste 37 Nordeste 0 -- -- 91
2018-04-22 03:00:00 11.5 25 Nordeste 35 Nordeste 0.2 -- -- 92
2018-04-22 02:00:00 11.7 20 Nordeste 33 Nordeste 1 -- -- 92
2018-04-22 01:00:00 12 5 Este 16 Nordeste 1 -- -- 95
2018-04-22 00:00:00 11.8 5 Nordeste 13 Noroeste 0.8 -- -- 94